createdAt,value
2023-01-13T00:02:19.391Z,96.88
2023-01-13T00:04:59.928Z,100.03
2023-01-13T00:07:44.529Z,106.57
2023-01-13T00:13:08.242Z,105.32
2023-01-13T00:15:55.227Z,98.05
2023-01-13T00:18:39.460Z,101.57
2023-01-13T00:21:24.135Z,106.97
2023-01-13T00:24:03.820Z,103.68
2023-01-13T00:26:45.458Z,108.57
2023-01-13T00:29:27.459Z,97.90
2023-01-13T00:32:16.287Z,90.47
2023-01-13T00:34:57.610Z,75.55
2023-01-13T00:40:14.519Z,57.65
2023-01-13T00:43:05.555Z,58.15
2023-01-13T00:45:51.552Z,60.92
2023-01-13T00:48:31.119Z,60.17
2023-01-13T00:51:07.949Z,54.28
2023-01-13T00:53:43.878Z,57.80
2023-01-13T00:56:38.996Z,65.03
2023-01-13T00:59:39.081Z,76.40
2023-01-13T01:02:29.214Z,74.78
2023-01-13T01:05:09.819Z,88.18
2023-01-13T01:07:48.170Z,89.35
2023-01-13T01:10:32.357Z,75.20
2023-01-13T01:13:20.424Z,77.25
2023-01-13T01:16:01.519Z,66.70
2023-01-13T01:18:40.222Z,58.30
2023-01-13T01:21:17.919Z,60.55
2023-01-13T01:24:02.032Z,62.38
2023-01-13T01:26:43.912Z,56.20
2023-01-13T01:29:24.475Z,56.72
2023-01-13T01:32:09.395Z,54.72
2023-01-13T01:34:52.580Z,51.40
2023-01-13T01:37:47.297Z,54.20
2023-01-13T01:40:28.419Z,49.07
2023-01-13T01:43:28.486Z,48.15
2023-01-13T01:46:13.082Z,49.90
2023-01-13T01:48:53.903Z,52.50
2023-01-13T01:51:29.770Z,54.97
2023-01-13T01:54:24.644Z,50.25
2023-01-13T01:57:07.533Z,45.78
2023-01-13T01:59:56.595Z,49.80
2023-01-13T02:02:41.916Z,43.72
2023-01-13T02:05:22.550Z,42.30
2023-01-13T02:08:09.299Z,43.38
2023-01-13T02:10:51.993Z,44.05
2023-01-13T02:13:40.725Z,42.38
2023-01-13T02:16:30.224Z,43.58
2023-01-13T02:19:32.332Z,41.20
2023-01-13T02:22:42.338Z,43.45
2023-01-13T02:25:46.493Z,42.72
2023-01-13T02:29:16.804Z,40.40
2023-01-13T02:31:59.689Z,41.55
2023-01-13T02:34:39.285Z,48.53
2023-01-13T02:37:28.827Z,56.53
2023-01-13T02:40:25.989Z,50.80
2023-01-13T02:43:31.593Z,47.72
2023-01-13T02:46:41.409Z,45.60
2023-01-13T02:49:35.594Z,45.72
2023-01-13T02:52:24.891Z,46.53
2023-01-13T02:55:12.322Z,45.83
2023-01-13T02:57:56.119Z,46.88
2023-01-13T03:00:34.980Z,42.97
2023-01-13T03:03:18.918Z,41.20
2023-01-13T03:06:10.862Z,42.97
2023-01-13T03:09:00.648Z,42.42
2023-01-13T03:12:05.565Z,40.78
2023-01-13T03:14:53.340Z,40.95
2023-01-13T03:17:44.320Z,39.20
2023-01-13T03:20:27.971Z,40.70
2023-01-13T03:23:27.165Z,41.72
2023-01-13T03:26:22.265Z,37.25
2023-01-13T03:29:17.223Z,39.55
2023-01-13T03:32:07.798Z,35.47
2023-01-13T03:34:56.467Z,32.78
2023-01-13T03:37:57.235Z,33.17
2023-01-13T03:40:37.080Z,35.47
2023-01-13T03:43:34.773Z,32.90
2023-01-13T03:46:20.152Z,33.58
2023-01-13T03:48:55.880Z,40.85
2023-01-13T03:51:39.211Z,39.20
2023-01-13T03:54:23.381Z,41.05
2023-01-13T03:57:18.122Z,40.75
2023-01-13T04:00:07.400Z,45.90
2023-01-13T04:03:00.829Z,39.95
2023-01-13T04:05:36.645Z,44.70
2023-01-13T04:08:34.218Z,52.90
2023-01-13T04:11:28.361Z,45.30
2023-01-13T04:14:12.100Z,52.00
2023-01-13T04:17:05.919Z,47.95
2023-01-13T04:19:50.024Z,52.05
2023-01-13T04:22:28.175Z,52.35
2023-01-13T04:25:11.834Z,52.75
2023-01-13T04:28:03.699Z,51.92
2023-01-13T04:30:53.244Z,53.53
2023-01-13T04:33:34.656Z,56.72
2023-01-13T04:36:13.731Z,52.70
2023-01-13T04:39:07.762Z,53.95
2023-01-13T04:41:58.208Z,53.65
2023-01-13T04:44:41.661Z,46.88
2023-01-13T04:47:27.941Z,49.05
2023-01-13T04:50:18.568Z,49.65
2023-01-13T04:53:10.448Z,48.47
2023-01-13T04:55:47.940Z,50.15
2023-01-13T04:58:34.615Z,49.03
2023-01-13T05:01:24.774Z,49.60
2023-01-13T05:04:15.504Z,48.15
2023-01-13T05:06:50.809Z,47.78
2023-01-13T05:09:36.517Z,49.60
2023-01-13T05:12:34.175Z,52.22
2023-01-13T05:15:40.370Z,48.95
2023-01-13T05:18:19.167Z,43.60
2023-01-13T05:21:03.354Z,44.45
2023-01-13T05:24:04.786Z,42.33
2023-01-13T05:26:54.229Z,40.85
2023-01-13T05:29:34.923Z,38.95
2023-01-13T05:32:21.339Z,35.83
2023-01-13T05:35:07.372Z,35.42
2023-01-13T05:37:53.634Z,44.58
2023-01-13T05:40:45.527Z,40.92
2023-01-13T05:43:25.016Z,47.47
2023-01-13T05:46:11.968Z,51.03
2023-01-13T05:48:50.796Z,50.20
2023-01-13T05:51:42.927Z,48.38
2023-01-13T05:54:29.469Z,50.97
2023-01-13T05:57:15.646Z,46.03
2023-01-13T05:59:55.678Z,45.35
2023-01-13T06:02:37.020Z,43.30
2023-01-13T06:05:09.849Z,39.92
2023-01-13T06:08:01.531Z,37.40
2023-01-13T06:10:37.183Z,39.03
2023-01-13T06:13:16.098Z,39.67
2023-01-13T06:15:56.886Z,36.95
2023-01-13T06:18:41.380Z,38.70
2023-01-13T06:21:18.744Z,38.10
2023-01-13T06:23:59.225Z,42.05
2023-01-13T06:26:31.885Z,41.15
2023-01-13T06:29:10.160Z,41.40
2023-01-13T06:31:45.960Z,44.38
2023-01-13T06:34:35.411Z,42.67
2023-01-13T06:37:14.042Z,43.25
2023-01-13T06:39:55.570Z,44.55
2023-01-13T06:42:52.200Z,42.42
2023-01-13T06:45:26.828Z,42.15
2023-01-13T06:48:07.429Z,43.47
2023-01-13T06:50:47.704Z,46.40
2023-01-13T06:53:28.322Z,46.78
2023-01-13T06:56:09.078Z,48.72
2023-01-13T06:58:47.286Z,44.55
2023-01-13T07:01:28.376Z,42.90
2023-01-13T07:04:11.639Z,43.45
2023-01-13T07:06:55.469Z,44.55
2023-01-13T07:09:30.609Z,43.00
2023-01-13T07:12:07.381Z,41.60
2023-01-13T07:14:58.033Z,43.95
2023-01-13T07:17:33.252Z,44.85
2023-01-13T07:20:18.016Z,44.20
2023-01-13T07:23:02.815Z,41.95
2023-01-13T07:25:44.033Z,46.63
2023-01-13T07:28:16.772Z,44.45
2023-01-13T07:30:59.886Z,48.22
2023-01-13T07:33:38.419Z,49.00
2023-01-13T07:36:19.668Z,45.55
2023-01-13T07:38:58.669Z,52.25
2023-01-13T07:41:57.592Z,51.17
2023-01-13T07:44:35.063Z,50.22
2023-01-13T07:47:17.669Z,49.35
2023-01-13T07:50:00.449Z,50.75
2023-01-13T07:52:32.495Z,54.25
2023-01-13T07:55:10.057Z,48.65
2023-01-13T07:58:01.531Z,48.25
2023-01-13T08:00:39.441Z,53.08
2023-01-13T08:03:27.921Z,39.33
2023-01-13T08:06:07.171Z,54.58
2023-01-13T08:08:43.219Z,58.15
2023-01-13T08:11:18.331Z,55.60
2023-01-13T08:14:14.115Z,54.30
2023-01-13T08:16:55.512Z,52.85
2023-01-13T08:19:30.703Z,53.72
2023-01-13T08:22:09.012Z,49.45
2023-01-13T08:24:52.757Z,48.30
2023-01-13T08:30:05.707Z,42.90
2023-01-13T08:32:51.177Z,45.78
2023-01-13T08:35:31.057Z,47.72
2023-01-13T08:38:03.108Z,51.97
2023-01-13T08:40:44.050Z,52.25
2023-01-13T08:43:21.774Z,52.08
2023-01-13T08:46:19.710Z,50.60
2023-01-13T08:49:00.992Z,49.30
2023-01-13T08:51:44.931Z,54.08
2023-01-13T08:54:25.648Z,48.03
2023-01-13T08:56:57.334Z,48.20
2023-01-13T08:59:32.504Z,47.78
2023-01-13T09:02:27.033Z,45.08
2023-01-13T09:05:03.004Z,48.13
2023-01-13T09:07:42.293Z,46.72
2023-01-13T09:10:12.278Z,48.25
2023-01-13T09:13:05.741Z,50.35
2023-01-13T09:15:48.904Z,57.47
2023-01-13T09:18:29.150Z,61.13
2023-01-13T09:21:07.232Z,54.40
2023-01-13T09:23:49.041Z,53.17
2023-01-13T09:26:32.853Z,51.80
2023-01-13T09:31:59.010Z,42.45
2023-01-13T09:34:46.041Z,38.92
2023-01-13T09:37:32.570Z,32.08
2023-01-13T09:40:09.760Z,29.83
2023-01-13T09:43:17.889Z,26.98
2023-01-13T09:45:59.226Z,26.83
2023-01-13T09:48:52.071Z,25.42
2023-01-13T09:51:35.407Z,24.25
2023-01-13T09:54:12.435Z,26.85
2023-01-13T09:56:47.746Z,23.35
2023-01-13T09:59:29.057Z,24.35
2023-01-13T10:02:28.938Z,23.48
2023-01-13T10:05:16.459Z,24.13
2023-01-13T10:08:11.108Z,26.63
2023-01-13T10:10:59.647Z,31.42
2023-01-13T10:13:35.471Z,26.90
2023-01-13T10:16:26.995Z,25.67
2023-01-13T10:19:09.032Z,25.25
2023-01-13T10:22:11.191Z,25.15
2023-01-13T10:25:05.347Z,24.13
2023-01-13T10:30:31.672Z,24.77
2023-01-13T10:33:27.699Z,23.70
2023-01-13T10:36:13.182Z,25.38
2023-01-13T10:38:56.175Z,27.08
2023-01-13T10:41:38.005Z,26.52
2023-01-13T10:44:32.863Z,23.75
2023-01-13T10:47:28.880Z,23.75
2023-01-13T10:50:27.367Z,28.25
2023-01-13T10:53:22.419Z,22.60
2023-01-13T10:56:18.265Z,22.00
2023-01-13T10:58:50.887Z,23.98
2023-01-13T11:01:37.778Z,24.07
2023-01-13T11:04:36.332Z,26.63
2023-01-13T11:07:34.475Z,24.35
2023-01-13T11:10:26.164Z,23.45
2023-01-13T11:13:33.445Z,25.83
2023-01-13T11:16:31.411Z,24.60
2023-01-13T11:19:15.195Z,23.13
2023-01-13T11:22:04.350Z,21.67
2023-01-13T11:25:01.832Z,20.73
2023-01-13T11:27:52.797Z,19.30
2023-01-13T11:30:42.905Z,19.90
2023-01-13T11:33:18.801Z,21.08
2023-01-13T11:36:01.299Z,20.80
2023-01-13T11:38:48.005Z,20.90
2023-01-13T11:41:29.148Z,22.05
2023-01-13T11:44:17.922Z,21.08
2023-01-13T11:47:04.727Z,21.05
2023-01-13T11:49:42.645Z,23.63
2023-01-13T11:52:33.081Z,25.80
2023-01-13T11:55:37.644Z,25.60
2023-01-13T11:58:15.918Z,30.98
2023-01-13T12:01:05.464Z,27.98
2023-01-13T12:03:48.288Z,27.75
2023-01-13T12:06:48.756Z,30.52
2023-01-13T12:09:47.668Z,25.17
2023-01-13T12:12:47.538Z,24.50
2023-01-13T12:15:50.740Z,23.70
2023-01-13T12:19:24.666Z,25.10
2023-01-13T12:22:23.662Z,22.70
2023-01-13T12:25:18.283Z,22.33
2023-01-13T12:28:20.387Z,24.70
2023-01-13T12:31:11.471Z,23.48
2023-01-13T12:34:14.680Z,23.48
2023-01-13T12:36:58.611Z,23.50
2023-01-13T12:42:31.304Z,25.35
2023-01-13T12:45:13.057Z,26.10
2023-01-13T12:47:55.072Z,25.35
2023-01-13T12:50:30.988Z,27.02
2023-01-13T12:53:00.214Z,26.02
2023-01-13T12:55:43.535Z,25.92
2023-01-13T12:58:17.487Z,26.73
2023-01-13T13:00:49.592Z,26.50
2023-01-13T13:03:37.962Z,27.25
2023-01-13T13:06:24.134Z,28.23
2023-01-13T13:09:07.884Z,27.05
2023-01-13T13:12:03.359Z,25.58
2023-01-13T13:15:08.327Z,26.23
2023-01-13T13:18:02.454Z,30.08
2023-01-13T13:21:04.543Z,29.25
2023-01-13T13:23:44.406Z,48.05
2023-01-13T13:26:45.757Z,45.05
2023-01-13T13:32:39.546Z,31.80
2023-01-13T13:35:56.430Z,28.25
2023-01-13T13:39:08.917Z,28.23
2023-01-13T13:42:10.232Z,26.35
2023-01-13T13:45:06.261Z,28.42
2023-01-13T13:47:46.843Z,27.58
2023-01-13T13:50:29.584Z,27.60
2023-01-13T13:53:09.344Z,29.17
2023-01-13T13:56:01.237Z,26.70
2023-01-13T13:58:37.435Z,28.25
2023-01-13T14:01:09.681Z,30.20
2023-01-13T14:03:42.305Z,29.05
2023-01-13T14:06:29.973Z,28.20
2023-01-13T14:09:24.177Z,26.00
2023-01-13T14:12:07.925Z,27.65
2023-01-13T14:14:52.158Z,29.63
2023-01-13T14:17:37.269Z,28.27
2023-01-13T14:20:20.609Z,29.17
2023-01-13T14:23:01.604Z,28.15
2023-01-13T14:25:51.845Z,29.58
2023-01-13T14:28:29.215Z,90.03
2023-01-13T14:31:10.322Z,30.58
2023-01-13T14:33:53.063Z,27.48
2023-01-13T14:36:42.851Z,28.85
2023-01-13T14:39:21.056Z,28.30
2023-01-13T14:41:54.912Z,27.17
2023-01-13T14:44:36.150Z,25.48
2023-01-13T14:47:28.104Z,29.58
2023-01-13T14:50:16.497Z,28.25
2023-01-13T14:53:04.237Z,28.42
2023-01-13T14:55:43.436Z,29.13
2023-01-13T14:58:28.627Z,27.55
2023-01-13T15:01:28.414Z,27.25
2023-01-13T15:04:28.108Z,26.50
2023-01-13T15:07:13.008Z,28.80
2023-01-13T15:09:51.219Z,28.08
2023-01-13T15:12:43.439Z,28.80
2023-01-13T15:15:38.808Z,29.15
2023-01-13T15:18:19.809Z,30.52
2023-01-13T15:20:58.287Z,30.88
2023-01-13T15:23:35.672Z,30.38
2023-01-13T15:26:11.380Z,31.73
2023-01-13T15:28:50.065Z,32.10
2023-01-13T15:31:34.235Z,30.35
2023-01-13T15:34:09.448Z,30.63
2023-01-13T15:36:44.880Z,32.05
2023-01-13T15:39:25.705Z,37.10
2023-01-13T15:42:22.859Z,36.00
2023-01-13T15:45:23.368Z,38.33
2023-01-13T15:48:04.657Z,36.08
2023-01-13T15:50:50.730Z,36.97
2023-01-13T15:53:33.639Z,38.20
2023-01-13T15:56:23.742Z,28.58
2023-01-13T15:58:59.309Z,38.78
2023-01-13T16:01:32.284Z,39.17
2023-01-13T16:04:14.373Z,37.67
2023-01-13T16:06:53.263Z,38.30
2023-01-13T16:09:28.866Z,39.03
2023-01-13T16:12:09.261Z,36.55
2023-01-13T16:14:52.000Z,38.38
2023-01-13T16:17:32.150Z,39.92
2023-01-13T16:20:12.600Z,44.58
2023-01-13T16:22:45.551Z,38.13
2023-01-13T16:25:39.263Z,33.97
2023-01-13T16:28:28.317Z,43.05
2023-01-13T16:31:35.699Z,40.95
2023-01-13T16:34:11.572Z,44.28
2023-01-13T16:36:46.317Z,43.83
2023-01-13T16:39:38.154Z,40.60
2023-01-13T16:42:08.134Z,59.10
2023-01-13T16:44:51.969Z,49.08
2023-01-13T16:47:32.167Z,39.28
2023-01-13T16:50:11.326Z,40.28
2023-01-13T16:52:47.445Z,35.67
2023-01-13T16:55:28.632Z,37.58
2023-01-13T16:58:04.336Z,34.95
2023-01-13T17:00:41.555Z,40.20
2023-01-13T17:03:19.192Z,40.30
2023-01-13T17:05:55.056Z,41.65
2023-01-13T17:08:38.837Z,40.15
2023-01-13T17:11:14.053Z,43.72
2023-01-13T17:13:49.312Z,39.95
2023-01-13T17:16:31.628Z,40.50
2023-01-13T17:19:09.447Z,38.60
2023-01-13T17:21:47.143Z,40.00
2023-01-13T17:24:25.987Z,44.20
2023-01-13T17:27:10.013Z,41.05
2023-01-13T17:29:45.687Z,43.05
2023-01-13T17:32:24.790Z,40.78
2023-01-13T17:35:02.711Z,39.28
2023-01-13T17:37:38.388Z,37.53
2023-01-13T17:40:11.692Z,43.33
2023-01-13T17:42:46.984Z,42.90
2023-01-13T17:45:37.282Z,39.35
2023-01-13T17:48:09.847Z,39.00
2023-01-13T17:50:52.368Z,38.92
2023-01-13T17:53:30.694Z,39.67
2023-01-13T17:56:14.584Z,38.75
2023-01-13T18:01:23.128Z,33.45
2023-01-13T18:04:07.284Z,36.72
2023-01-13T18:06:45.197Z,39.42
2023-01-13T18:09:17.995Z,47.38
2023-01-13T18:11:53.304Z,45.95
2023-01-13T18:14:28.578Z,49.78
2023-01-13T18:17:06.319Z,55.20
2023-01-13T18:19:59.811Z,43.45
2023-01-13T18:22:53.675Z,53.05
2023-01-13T18:26:07.459Z,59.08
2023-01-13T18:28:44.264Z,58.22
2023-01-13T18:31:24.928Z,57.85
2023-01-13T18:34:03.317Z,53.30
2023-01-13T18:36:46.461Z,50.50
2023-01-13T18:39:22.114Z,48.63
2023-01-13T18:42:13.481Z,52.53
2023-01-13T18:44:48.228Z,53.90
2023-01-13T18:47:23.300Z,52.28
2023-01-13T18:49:58.313Z,52.67
2023-01-13T18:52:31.578Z,58.33
2023-01-13T18:55:12.592Z,55.10
2023-01-13T18:57:42.762Z,53.10
2023-01-13T19:00:23.421Z,58.03
2023-01-13T19:05:40.892Z,63.22
2023-01-13T19:08:18.913Z,61.53
2023-01-13T19:11:04.405Z,54.20
2023-01-13T19:13:52.478Z,62.22
2023-01-13T19:16:30.746Z,61.15
2023-01-13T19:19:08.360Z,62.70
2023-01-13T19:21:43.811Z,64.75
2023-01-13T19:24:21.579Z,59.78
2023-01-13T19:27:07.365Z,58.00
2023-01-13T19:29:53.631Z,57.83
2023-01-13T19:32:29.048Z,60.15
2023-01-13T19:35:02.411Z,62.42
2023-01-13T19:37:46.440Z,63.70
2023-01-13T19:40:24.185Z,65.95
2023-01-13T19:43:20.650Z,59.30
2023-01-13T19:46:04.930Z,58.83
2023-01-13T19:48:32.448Z,62.67
2023-01-13T19:51:09.248Z,56.92
2023-01-13T19:53:47.515Z,61.15
2023-01-13T19:56:18.648Z,59.45
2023-01-13T19:58:50.924Z,63.10
2023-01-13T20:01:36.400Z,57.95
2023-01-13T20:04:17.177Z,59.63
2023-01-13T20:07:13.738Z,57.72
2023-01-13T20:12:42.811Z,59.33
2023-01-13T20:15:27.332Z,58.33
2023-01-13T20:18:05.455Z,56.70
2023-01-13T20:20:53.558Z,50.75
2023-01-13T20:23:41.710Z,49.47
2023-01-13T20:26:24.845Z,50.35
2023-01-13T20:29:06.311Z,37.60
2023-01-13T20:31:45.152Z,49.05
2023-01-13T20:34:20.578Z,52.83
2023-01-13T20:36:59.331Z,60.38
2023-01-13T20:39:46.575Z,55.50
2023-01-13T20:42:31.729Z,56.60
2023-01-13T20:45:23.991Z,56.20
2023-01-13T20:48:05.704Z,57.53
2023-01-13T20:50:46.283Z,53.40
2023-01-13T20:53:25.434Z,54.72
2023-01-13T20:56:09.793Z,57.38
2023-01-13T20:58:47.763Z,57.92
2023-01-13T21:01:30.916Z,55.97
2023-01-13T21:04:10.208Z,51.92
2023-01-13T21:06:53.878Z,50.58
2023-01-13T21:09:34.318Z,54.10
2023-01-13T21:12:25.901Z,52.97
2023-01-13T21:15:21.994Z,56.80
2023-01-13T21:18:13.142Z,53.97
2023-01-13T21:21:08.734Z,52.10
2023-01-13T21:23:42.529Z,54.22
2023-01-13T21:26:19.724Z,51.15
2023-01-13T21:28:56.049Z,49.65
2023-01-13T21:31:32.780Z,51.75
2023-01-13T21:34:30.545Z,54.55
2023-01-13T21:37:16.157Z,68.07
2023-01-13T21:39:59.876Z,65.97
2023-01-13T21:42:53.988Z,62.15
2023-01-13T21:45:46.083Z,56.35
2023-01-13T21:48:28.739Z,53.90
2023-01-13T21:51:25.231Z,56.78
2023-01-13T21:54:12.579Z,56.85
2023-01-13T21:56:53.737Z,54.10
2023-01-13T21:59:40.679Z,55.53
2023-01-13T22:02:32.397Z,54.88
2023-01-13T22:05:23.018Z,55.50
2023-01-13T22:07:58.678Z,53.03
2023-01-13T22:11:17.676Z,59.92
2023-01-13T22:14:10.156Z,52.03
2023-01-13T22:16:50.044Z,55.17
2023-01-13T22:19:27.113Z,50.13
2023-01-13T22:22:08.993Z,50.83
2023-01-13T22:24:42.441Z,57.28
2023-01-13T22:27:42.721Z,52.70
2023-01-13T22:30:26.689Z,53.78
2023-01-13T22:33:10.601Z,57.50
2023-01-13T22:38:32.410Z,55.80
2023-01-13T22:41:14.687Z,51.35
2023-01-13T22:43:50.299Z,53.03
2023-01-13T22:46:30.897Z,52.88
2023-01-13T22:49:16.912Z,50.25
2023-01-13T22:51:58.532Z,55.22
2023-01-13T22:57:47.666Z,50.33
2023-01-13T23:00:25.041Z,49.13
2023-01-13T23:02:57.664Z,54.50
2023-01-13T23:05:38.852Z,51.30
2023-01-13T23:08:14.293Z,49.65
2023-01-13T23:10:54.653Z,48.05
2023-01-13T23:13:40.338Z,48.30
2023-01-13T23:16:21.125Z,52.90
2023-01-13T23:19:05.012Z,48.60
2023-01-13T23:24:28.027Z,48.42
2023-01-13T23:27:08.385Z,51.25
2023-01-13T23:29:49.237Z,50.58
2023-01-13T23:32:25.467Z,49.35
2023-01-13T23:35:12.842Z,46.80
2023-01-13T23:37:50.547Z,43.70
2023-01-13T23:40:33.777Z,45.20
2023-01-13T23:43:07.410Z,52.17
2023-01-13T23:45:47.346Z,49.00
2023-01-13T23:48:28.633Z,48.92
2023-01-13T23:51:16.403Z,47.72
2023-01-13T23:53:58.149Z,45.60
2023-01-13T23:56:35.095Z,43.55
2023-01-13T23:59:08.226Z,47.35
